Time;durP1;ratioP1;P1;durP2;ratioP2;P2;SDS_P1;SDS_P2;PMS_P1;PMS_P2;Temp;Humidity;BMP_temperature;BMP_pressure;BME280_temperature;BME280_humidity;BME280_pressure;Samples;Min_cycle;Max_cycle;Signal;HPM_P1;HPM_P2
2021/06/23 04:35:35;;;;;;;;;;;15.70;99.90;;;;;;4981850;28;19922;-90
2021/06/23 04:47:05;;;;;;;;;;;15.70;99.90;;;;;;5433104;23;20061;-70
2021/06/23 04:49:32;;;;;;;;;;;15.70;99.90;;;;;;4944290;28;19982;-70
2021/06/23 04:52:25;;;;;;;;;;;15.70;99.90;;;;;;4957408;28;19930;-70
2021/06/23 04:54:52;;;;;;;;;;;15.70;99.90;;;;;;4949305;28;19926;-71
2021/06/23 04:57:19;;;;;;;;;;;15.80;99.90;;;;;;4948355;28;19937;-71
2021/06/23 04:59:46;;;;;;;;;;;15.70;99.90;;;;;;4936553;28;20310;-71
2021/06/23 05:02:15;;;;;;;;;;;15.70;99.90;;;;;;4953634;29;20402;-71
2021/06/23 05:04:47;;;;;;;;;;;15.70;99.90;;;;;;4924989;29;19970;-71
2021/06/23 05:07:13;;;;;;;;;;;15.80;99.90;;;;;;4958596;28;19938;-71
2021/06/23 05:09:41;;;;;;;;;;;15.90;99.90;;;;;;4956979;28;19982;-71
2021/06/23 05:12:09;;;;;;;;;;;15.90;99.90;;;;;;4952017;28;19932;-71
2021/06/23 05:14:37;;;;;;;;;;;16.00;99.90;;;;;;4944810;29;19926;-71
2021/06/23 05:17:05;;;;;;;;;;;16.00;99.90;;;;;;4953838;29;19934;-71
2021/06/23 05:19:34;;;;;;;;;;;16.10;99.90;;;;;;4954113;29;20021;-71
2021/06/23 05:22:03;;;;;;;;;;;16.20;99.90;;;;;;4954160;29;20026;-72
2021/06/23 05:24:31;;;;;;;;;;;16.30;99.90;;;;;;4953041;29;19927;-72
2021/06/23 05:26:59;;;;;;;;;;;16.30;99.90;;;;;;4936511;29;19933;-71
2021/06/23 05:29:26;;;;;;;;;;;16.40;99.90;;;;;;4929209;29;20386;-71
2021/06/23 05:31:53;;;;;;;;;;;16.60;99.90;;;;;;4953252;29;19981;-71
2021/06/23 05:34:20;;;;;;;;;;;16.60;99.90;;;;;;4954849;29;20450;-71
2021/06/23 05:36:50;;;;;;;;;;;16.60;99.90;;;;;;4938444;29;20045;-71
2021/06/23 05:39:17;;;;;;;;;;;16.60;99.90;;;;;;4957190;29;19927;-71
2021/06/23 05:41:44;;;;;;;;;;;16.70;99.90;;;;;;4956491;29;19930;-72
2021/06/23 05:44:12;;;;;;;;;;;16.70;99.90;;;;;;4950782;29;19926;-71
2021/06/23 05:46:38;;;;;;;;;;;16.90;99.90;;;;;;4955615;28;19926;-70
2021/06/23 05:49:05;;;;;;;;;;;16.80;99.90;;;;;;4956731;29;20007;-70
2021/06/23 05:51:32;;;;;;;;;;;16.60;99.90;;;;;;4957772;28;19969;-70
2021/06/23 05:54:00;;;;;;;;;;;16.70;99.90;;;;;;4972265;29;19934;-72
2021/06/23 05:56:27;;;;;;;;;;;16.80;99.90;;;;;;4972130;28;19962;-71
2021/06/23 05:58:55;;;;;;;;;;;16.80;99.90;;;;;;4955706;29;19958;-71
2021/06/23 06:01:23;;;;;;;;;;;16.70;99.90;;;;;;4971714;29;19927;-71
2021/06/23 06:03:50;;;;;;;;;;;16.70;99.90;;;;;;4971340;29;19930;-71
2021/06/23 06:06:17;;;;;;;;;;;16.80;99.90;;;;;;4970136;29;19930;-70
2021/06/23 06:08:45;;;;;;;;;;;16.90;99.90;;;;;;4950380;29;20010;-72
2021/06/23 06:11:15;;;;;;;;;;;17.00;99.90;;;;;;4952783;29;19950;-70
2021/06/23 06:13:42;;;;;;;;;;;17.10;99.90;;;;;;4955216;29;20033;-70
2021/06/23 06:16:12;;;;;;;;;;;17.10;99.90;;;;;;4939106;29;19986;-72
2021/06/23 06:18:40;;;;;;;;;;;17.20;99.90;;;;;;4939056;29;20592;-72
2021/06/23 06:21:08;;;;;;;;;;;17.30;99.90;;;;;;4938167;29;19933;-70
2021/06/23 06:23:36;;;;;;;;;;;17.30;99.90;;;;;;4956826;29;19927;-70
2021/06/23 06:26:03;;;;;;;;;;;17.30;99.90;;;;;;4956286;29;19949;-70
2021/06/23 06:28:32;;;;;;;;;;;17.40;99.90;;;;;;4973236;29;19934;-71
2021/06/23 06:31:00;;;;;;;;;;;17.40;99.90;;;;;;4941103;29;19927;-71
2021/06/23 06:33:27;;;;;;;;;;;17.30;99.90;;;;;;4953577;29;20024;-71
2021/06/23 06:35:53;;;;;;;;;;;17.40;99.90;;;;;;4954537;29;20206;-71
2021/06/23 06:38:21;;;;;;;;;;;17.50;99.90;;;;;;4953732;29;20454;-71
2021/06/23 06:40:49;;;;;;;;;;;17.30;99.90;;;;;;4936956;29;19926;-71
2021/06/23 06:43:15;;;;;;;;;;;17.40;99.90;;;;;;4954762;29;20022;-71
2021/06/23 06:45:45;;;;;;;;;;;17.50;99.90;;;;;;4952370;29;20021;-70
2021/06/23 06:48:14;;;;;;;;;;;17.70;99.90;;;;;;4935009;29;19930;-70
2021/06/23 06:50:41;;;;;;;;;;;17.80;99.90;;;;;;4935265;29;19981;-71
2021/06/23 06:53:08;;;;;;;;;;;18.00;99.90;;;;;;4952918;29;19982;-71
2021/06/23 06:55:35;;;;;;;;;;;18.00;99.90;;;;;;4952659;29;20021;-71
2021/06/23 06:58:02;;;;;;;;;;;18.20;99.90;;;;;;4952189;29;19926;-71
2021/06/23 07:00:29;;;;;;;;;;;18.10;99.90;;;;;;4951940;29;20037;-71
2021/06/23 07:02:58;;;;;;;;;;;18.20;99.90;;;;;;4952835;28;20365;-71
2021/06/23 07:05:25;;;;;;;;;;;18.20;99.90;;;;;;4935180;29;19926;-71
2021/06/23 07:07:52;;;;;;;;;;;18.40;99.90;;;;;;4952414;29;20132;-71
2021/06/23 07:10:19;;;;;;;;;;;18.60;99.90;;;;;;4935906;29;19930;-71
2021/06/23 07:12:46;;;;;;;;;;;18.60;99.90;;;;;;4949978;29;19926;-71
2021/06/23 07:15:14;;;;;;;;;;;18.80;99.90;;;;;;4936402;29;19941;-75
2021/06/23 07:17:41;;;;;;;;;;;19.00;99.90;;;;;;4952375;28;19926;-72
2021/06/23 07:20:10;;;;;;;;;;;19.10;99.90;;;;;;4952496;29;19982;-71
2021/06/23 07:22:37;;;;;;;;;;;19.20;99.90;;;;;;4951857;29;19930;-71
2021/06/23 07:25:04;;;;;;;;;;;19.50;99.90;;;;;;4953060;29;19927;-71
2021/06/23 07:27:31;;;;;;;;;;;19.50;99.90;;;;;;4951924;28;19926;-71
2021/06/23 07:29:57;;;;;;;;;;;19.70;99.90;;;;;;4952570;29;20029;-71
2021/06/23 07:32:26;;;;;;;;;;;20.30;99.90;;;;;;4951836;29;19937;-71
2021/06/23 07:37:35;;;;;;;;;;;20.50;99.90;;;;;;4951214;29;19926;-71
2021/06/23 07:40:03;;;;;;;;;;;20.80;99.90;;;;;;4934466;29;19972;-71
2021/06/23 07:42:30;;;;;;;;;;;21.40;99.90;;;;;;4951524;29;19926;-72
2021/06/23 07:44:59;;;;;;;;;;;22.10;99.90;;;;;;4952670;29;19986;-71
2021/06/23 07:47:28;;;;;;;;;;;22.50;99.90;;;;;;4951429;28;20025;-72
2021/06/23 07:49:56;;;;;;;;;;;22.70;99.90;;;;;;4951485;29;19934;-71
2021/06/23 07:52:34;;;;;;;;;;;22.20;99.90;;;;;;4951555;29;20358;-71
2021/06/23 07:55:08;;;;;;;;;;;22.40;99.90;;;;;;4934739;29;20021;-71
2021/06/23 08:08:55;;;;;;;;;;;21.30;99.90;;;;;;4934114;29;20378;-71
2021/06/23 08:11:29;;;;;;;;;;;21.00;99.90;;;;;;4951668;29;19934;-71
2021/06/23 08:13:56;;;;;;;;;;;21.50;99.90;;;;;;4952558;28;20427;-70
2021/06/23 08:16:23;;;;;;;;;;;21.90;99.90;;;;;;4954932;28;19927;-71
2021/06/23 08:18:50;;;;;;;;;;;21.80;99.90;;;;;;4955027;29;20386;-71
2021/06/23 08:21:17;;;;;;;;;;;21.30;99.90;;;;;;4955055;29;20395;-71
2021/06/23 08:23:44;;;;;;;;;;;21.50;99.90;;;;;;4955141;29;19927;-71
2021/06/23 08:26:11;;;;;;;;;;;21.20;99.90;;;;;;4954937;28;19982;-70
2021/06/23 08:28:40;;;;;;;;;;;23.00;99.90;;;;;;4937574;29;19930;-70
2021/06/23 08:31:07;;;;;;;;;;;22.90;99.90;;;;;;4953554;29;20041;-71
2021/06/23 08:33:34;;;;;;;;;;;24.20;99.90;;;;;;4938207;29;20313;-71
2021/06/23 08:36:01;;;;;;;;;;;23.50;99.90;;;;;;4954919;28;20018;-71
2021/06/23 08:38:27;;;;;;;;;;;23.60;99.90;;;;;;4954434;29;19932;-71
2021/06/23 08:40:54;;;;;;;;;;;23.50;99.90;;;;;;4954903;29;20025;-70
2021/06/23 08:43:21;;;;;;;;;;;23.20;99.90;;;;;;4954757;29;20025;-71
2021/06/23 08:45:50;;;;;;;;;;;23.00;99.90;;;;;;4954834;29;19973;-70
2021/06/23 08:48:17;;;;;;;;;;;24.30;99.90;;;;;;4937670;29;19931;-71
2021/06/23 08:50:43;;;;;;;;;;;25.60;99.90;;;;;;4954510;29;20390;-71
2021/06/23 08:53:11;;;;;;;;;;;24.70;99.90;;;;;;4936793;29;19926;-71
2021/06/23 08:55:38;;;;;;;;;;;24.50;99.90;;;;;;4954486;29;20390;-71
2021/06/23 08:58:05;;;;;;;;;;;24.20;99.90;;;;;;4954263;29;19985;-71
2021/06/23 09:00:32;;;;;;;;;;;23.60;99.90;;;;;;4937415;29;19927;-71
2021/06/23 09:03:02;;;;;;;;;;;23.20;99.90;;;;;;4954528;29;20287;-71
2021/06/23 09:05:45;;;;;;;;;;;24.10;99.90;;;;;;4954430;29;20390;-71
2021/06/23 09:08:12;;;;;;;;;;;25.00;99.90;;;;;;4954522;29;19966;-71
2021/06/23 09:10:39;;;;;;;;;;;24.60;99.90;;;;;;4936724;29;19926;-71
2021/06/23 09:13:16;;;;;;;;;;;23.90;99.90;;;;;;4937105;29;19926;-71
2021/06/23 09:15:43;;;;;;;;;;;23.30;99.90;;;;;;4936924;29;19949;-71
2021/06/23 09:18:12;;;;;;;;;;;23.10;99.90;;;;;;4936834;29;20442;-71
2021/06/23 09:20:39;;;;;;;;;;;23.00;99.90;;;;;;4953860;29;19931;-71
2021/06/23 09:23:06;;;;;;;;;;;23.00;99.90;;;;;;4953986;29;20394;-71
2021/06/23 09:25:34;;;;;;;;;;;23.20;99.90;;;;;;4953956;28;20013;-72
2021/06/23 09:28:02;;;;;;;;;;;22.90;99.90;;;;;;4936884;29;19938;-71
2021/06/23 09:30:32;;;;;;;;;;;22.70;99.90;;;;;;4936509;29;19937;-72
2021/06/23 09:33:06;;;;;;;;;;;23.00;99.90;;;;;;4953928;29;19930;-71
2021/06/23 09:35:34;;;;;;;;;;;23.60;99.90;;;;;;4936729;29;19948;-71
2021/06/23 09:38:01;;;;;;;;;;;23.90;99.90;;;;;;4953294;29;19969;-71
2021/06/23 09:40:29;;;;;;;;;;;24.20;99.90;;;;;;4953864;29;19981;-71
2021/06/23 09:43:00;;;;;;;;;;;24.40;99.90;;;;;;4936466;29;20441;-71
2021/06/23 09:45:28;;;;;;;;;;;24.40;99.90;;;;;;4953986;29;20398;-71
2021/06/23 09:47:58;;;;;;;;;;;25.00;99.90;;;;;;4935749;29;19930;-72
2021/06/23 09:50:26;;;;;;;;;;;26.30;99.90;;;;;;4936764;29;19961;-71
2021/06/23 09:52:56;;;;;;;;;;;25.90;99.90;;;;;;4953396;29;20052;-71
2021/06/23 09:55:33;;;;;;;;;;;25.90;99.90;;;;;;4952958;29;20458;-71
2021/06/23 09:58:07;;;;;;;;;;;23.90;99.90;;;;;;4953012;29;19926;-72
2021/06/23 10:00:51;;;;;;;;;;;24.30;99.90;;;;;;4916725;29;20549;-72
2021/06/23 10:03:17;;;;;;;;;;;25.20;99.90;;;;;;4916669;29;19927;-71
2021/06/23 10:05:44;;;;;;;;;;;25.50;99.90;;;;;;4916982;29;19931;-72
2021/06/23 10:08:20;;;;;;;;;;;25.40;99.90;;;;;;4917375;29;20431;-71
2021/06/23 10:10:47;;;;;;;;;;;26.00;99.90;;;;;;4934154;29;20018;-71
2021/06/23 10:13:14;;;;;;;;;;;26.70;99.90;;;;;;4916680;29;19926;-71
2021/06/23 10:15:41;;;;;;;;;;;25.90;99.90;;;;;;4933717;29;19930;-71
2021/06/23 10:18:08;;;;;;;;;;;26.20;99.90;;;;;;4933116;29;20306;-71
2021/06/23 10:20:35;;;;;;;;;;;25.90;99.90;;;;;;4916700;29;19926;-71
2021/06/23 10:23:04;;;;;;;;;;;25.90;99.90;;;;;;4933893;29;19978;-71
2021/06/23 10:25:32;;;;;;;;;;;26.00;99.90;;;;;;4934023;29;19969;-71
2021/06/23 10:28:00;;;;;;;;;;;26.60;99.90;;;;;;4915048;29;19950;-72
2021/06/23 10:30:28;;;;;;;;;;;26.10;99.90;;;;;;4933407;29;19927;-71
2021/06/23 10:32:55;;;;;;;;;;;26.20;99.90;;;;;;4909970;29;20039;-71
2021/06/23 10:35:22;;;;;;;;;;;25.90;99.90;;;;;;4931650;29;20099;-71
2021/06/23 10:37:50;;;;;;;;;;;26.10;99.90;;;;;;4928970;29;19927;-72
2021/06/23 10:40:19;;;;;;;;;;;25.70;99.90;;;;;;4930752;29;20025;-72
2021/06/23 10:42:47;;;;;;;;;;;26.30;99.90;;;;;;4916145;29;19930;-72
2021/06/23 10:45:15;;;;;;;;;;;26.50;99.90;;;;;;4933576;29;20466;-72
2021/06/23 10:47:43;;;;;;;;;;;26.10;99.90;;;;;;4931253;29;19973;-72
2021/06/23 10:50:10;;;;;;;;;;;26.40;99.90;;;;;;4933089;29;20359;-74
2021/06/23 10:52:38;;;;;;;;;;;25.70;99.90;;;;;;4932199;29;19927;-72
2021/06/23 10:55:07;;;;;;;;;;;24.90;99.90;;;;;;4941045;29;19965;-72
2021/06/23 10:57:36;;;;;;;;;;;24.80;99.90;;;;;;4953203;29;20472;-72
2021/06/23 11:00:27;;;;;;;;;;;25.70;99.90;;;;;;4919039;29;19934;-72
2021/06/23 11:02:59;;;;;;;;;;;25.40;99.90;;;;;;4915199;29;19931;-72
2021/06/23 11:05:32;;;;;;;;;;;24.70;99.90;;;;;;4933028;29;20030;-72
2021/06/23 11:07:59;;;;;;;;;;;24.70;99.90;;;;;;4915569;29;20136;-72
2021/06/23 11:10:38;;;;;;;;;;;24.70;99.90;;;;;;4933135;29;19933;-73
2021/06/23 11:13:06;;;;;;;;;;;24.80;99.90;;;;;;4932871;29;19927;-73
2021/06/23 11:15:39;;;;;;;;;;;24.80;99.90;;;;;;4930231;29;20275;-73
2021/06/23 11:18:17;;;;;;;;;;;24.60;99.90;;;;;;4932097;29;19992;-73
2021/06/23 11:20:44;;;;;;;;;;;24.50;99.90;;;;;;4931083;29;19927;-73
2021/06/23 11:23:25;;;;;;;;;;;24.00;99.90;;;;;;4932230;29;20029;-73
2021/06/23 11:25:52;;;;;;;;;;;24.60;99.90;;;;;;4932364;29;19927;-73
2021/06/23 11:28:26;;;;;;;;;;;24.30;99.90;;;;;;4934540;29;19934;-72
2021/06/23 11:31:04;;;;;;;;;;;24.60;99.90;;;;;;4941218;29;19934;-73
2021/06/23 11:33:48;;;;;;;;;;;24.50;99.90;;;;;;4935374;29;20313;-73
2021/06/23 11:36:16;;;;;;;;;;;24.80;99.90;;;;;;4915973;29;20307;-73
2021/06/23 11:38:43;;;;;;;;;;;24.50;99.90;;;;;;4934755;29;20189;-73
2021/06/23 11:41:11;;;;;;;;;;;24.40;99.90;;;;;;4934318;29;20030;-73
2021/06/23 11:43:38;;;;;;;;;;;24.20;99.90;;;;;;4932745;29;20379;-73
2021/06/23 11:46:06;;;;;;;;;;;24.30;99.90;;;;;;4933306;29;20050;-73
2021/06/23 11:48:34;;;;;;;;;;;24.10;99.90;;;;;;4934715;29;19958;-73
2021/06/23 11:51:01;;;;;;;;;;;23.60;99.90;;;;;;4937708;29;20018;-73
2021/06/23 11:53:27;;;;;;;;;;;23.40;99.90;;;;;;4936948;29;20391;-73
2021/06/23 11:55:54;;;;;;;;;;;23.50;99.90;;;;;;4937346;29;20352;-73
2021/06/23 11:58:21;;;;;;;;;;;23.40;99.90;;;;;;4936895;29;19973;-73
2021/06/23 12:00:48;;;;;;;;;;;23.40;99.90;;;;;;4937031;29;20508;-73
2021/06/23 12:03:17;;;;;;;;;;;23.60;99.90;;;;;;4922373;29;19962;-72
2021/06/23 12:05:45;;;;;;;;;;;23.50;99.90;;;;;;4955545;29;19933;-73
2021/06/23 12:08:12;;;;;;;;;;;23.30;99.90;;;;;;4955808;29;19932;-73
2021/06/23 12:10:39;;;;;;;;;;;23.50;99.90;;;;;;4939195;29;19958;-72
2021/06/23 12:13:06;;;;;;;;;;;23.60;99.90;;;;;;4919089;29;20021;-73
2021/06/23 12:15:33;;;;;;;;;;;23.50;99.90;;;;;;4935918;29;20029;-73
2021/06/23 12:18:01;;;;;;;;;;;23.30;99.90;;;;;;4936065;29;19982;-73
2021/06/23 12:20:30;;;;;;;;;;;23.50;99.90;;;;;;4946897;29;19932;-73
2021/06/23 12:22:59;;;;;;;;;;;23.30;99.90;;;;;;4955964;29;20021;-72
2021/06/23 12:25:26;;;;;;;;;;;23.30;99.90;;;;;;4955439;29;19937;-73
2021/06/23 12:27:53;;;;;;;;;;;23.20;99.90;;;;;;4955375;29;20355;-72
2021/06/23 12:30:20;;;;;;;;;;;22.90;99.90;;;;;;4921902;29;19930;-72
2021/06/23 12:32:47;;;;;;;;;;;22.80;99.90;;;;;;4918096;29;19930;-72
2021/06/23 12:35:14;;;;;;;;;;;22.70;99.90;;;;;;4938264;29;19946;-73
2021/06/23 12:37:42;;;;;;;;;;;22.60;99.90;;;;;;4918027;29;19934;-73
2021/06/23 12:40:10;;;;;;;;;;;22.50;99.90;;;;;;4934385;29;19927;-74
2021/06/23 12:42:36;;;;;;;;;;;22.50;99.90;;;;;;4918733;29;19975;-73
2021/06/23 12:45:03;;;;;;;;;;;22.10;99.90;;;;;;4935515;29;19931;-73
2021/06/23 12:47:30;;;;;;;;;;;22.10;99.90;;;;;;4935267;29;19934;-75
2021/06/23 12:49:57;;;;;;;;;;;21.70;99.90;;;;;;4934957;29;19938;-73
2021/06/23 12:52:24;;;;;;;;;;;21.50;99.90;;;;;;4931703;29;19926;-74
2021/06/23 12:54:52;;;;;;;;;;;21.10;99.90;;;;;;4934092;29;19931;-73
2021/06/23 12:57:19;;;;;;;;;;;21.10;99.90;;;;;;4930605;29;19927;-74
2021/06/23 12:59:46;;;;;;;;;;;20.90;99.90;;;;;;4934606;29;20367;-72
2021/06/23 13:02:13;;;;;;;;;;;20.90;99.90;;;;;;4933218;29;19933;-72
2021/06/23 13:04:41;;;;;;;;;;;20.90;99.90;;;;;;4935624;29;20199;-72
2021/06/23 13:07:07;;;;;;;;;;;21.00;99.90;;;;;;4935795;29;20174;-72
2021/06/23 13:09:35;;;;;;;;;;;21.50;99.90;;;;;;4932283;29;19994;-71
2021/06/23 13:12:03;;;;;;;;;;;21.80;99.90;;;;;;4936760;29;19982;-71
2021/06/23 13:14:30;;;;;;;;;;;21.80;99.90;;;;;;4932958;29;20631;-71
2021/06/23 13:16:57;;;;;;;;;;;21.90;99.90;;;;;;4918496;29;19994;-72
2021/06/23 13:19:23;;;;;;;;;;;22.20;99.90;;;;;;4933989;29;20498;-72
2021/06/23 13:21:50;;;;;;;;;;;22.30;99.90;;;;;;4935756;29;20276;-72
2021/06/23 13:24:17;;;;;;;;;;;22.30;99.90;;;;;;4918494;29;19931;-72
2021/06/23 13:26:44;;;;;;;;;;;22.30;99.90;;;;;;4939252;29;19994;-72
2021/06/23 13:29:12;;;;;;;;;;;22.30;99.90;;;;;;4935741;29;20018;-72
2021/06/23 13:31:39;;;;;;;;;;;22.30;99.90;;;;;;4918215;29;19926;-73
2021/06/23 13:34:09;;;;;;;;;;;22.50;99.90;;;;;;4942922;29;19988;-73
2021/06/23 13:36:36;;;;;;;;;;;22.50;99.90;;;;;;4935219;29;19927;-73
2021/06/23 13:39:03;;;;;;;;;;;22.60;99.90;;;;;;4934460;29;20120;-74
2021/06/23 13:41:30;;;;;;;;;;;22.50;99.90;;;;;;4935148;29;19931;-74
2021/06/23 13:43:57;;;;;;;;;;;22.40;99.90;;;;;;4918098;29;20016;-73
2021/06/23 13:46:25;;;;;;;;;;;22.40;99.90;;;;;;4935946;29;20441;-74
2021/06/23 13:48:52;;;;;;;;;;;22.50;99.90;;;;;;4935164;29;20029;-73
2021/06/23 13:51:19;;;;;;;;;;;22.50;99.90;;;;;;4935145;29;19962;-73
2021/06/23 13:53:45;;;;;;;;;;;22.50;99.90;;;;;;4934622;29;19979;-73
2021/06/23 13:56:12;;;;;;;;;;;22.50;99.90;;;;;;4931517;29;20083;-72
2021/06/23 13:58:39;;;;;;;;;;;22.90;99.90;;;;;;4932607;29;19977;-73
2021/06/23 14:01:06;;;;;;;;;;;23.10;99.90;;;;;;4934646;29;19935;-72
2021/06/23 14:03:34;;;;;;;;;;;23.30;99.90;;;;;;4934658;29;19958;-72
2021/06/23 14:06:01;;;;;;;;;;;23.60;99.90;;;;;;4934140;29;19953;-74
2021/06/23 14:08:28;;;;;;;;;;;24.20;99.90;;;;;;4933985;29;19933;-73
2021/06/23 14:10:55;;;;;;;;;;;24.70;99.90;;;;;;4934074;29;20703;-72
2021/06/23 14:13:22;;;;;;;;;;;24.20;99.90;;;;;;4934272;29;19978;-73
2021/06/23 14:15:49;;;;;;;;;;;24.20;99.90;;;;;;4934593;29;20449;-72
2021/06/23 14:18:15;;;;;;;;;;;23.60;99.90;;;;;;4934139;29;19930;-73
2021/06/23 14:20:44;;;;;;;;;;;23.70;99.90;;;;;;4934251;29;19934;-73
2021/06/23 14:23:11;;;;;;;;;;;23.80;99.90;;;;;;4934649;29;19939;-73
2021/06/23 14:25:37;;;;;;;;;;;24.30;99.90;;;;;;4934956;29;19934;-73
2021/06/23 14:28:04;;;;;;;;;;;24.20;99.90;;;;;;4918154;29;19927;-73
2021/06/23 14:30:31;;;;;;;;;;;24.60;99.90;;;;;;4944324;29;20334;-73
2021/06/23 14:32:58;;;;;;;;;;;25.40;99.90;;;;;;4941290;29;20256;-73
2021/06/23 14:35:25;;;;;;;;;;;25.40;99.90;;;;;;4926541;29;19937;-73
2021/06/23 14:37:54;;;;;;;;;;;24.60;99.90;;;;;;4917282;29;19931;-70
2021/06/23 14:40:21;;;;;;;;;;;24.40;99.90;;;;;;4934108;29;20408;-69
2021/06/23 14:42:48;;;;;;;;;;;24.20;99.90;;;;;;4933511;29;19926;-68
2021/06/23 14:45:16;;;;;;;;;;;24.20;99.90;;;;;;4916486;29;19931;-70
2021/06/23 14:47:43;;;;;;;;;;;24.00;99.90;;;;;;4931406;29;19927;-69
2021/06/23 14:50:11;;;;;;;;;;;24.20;99.90;;;;;;4930214;29;20398;-70
2021/06/23 14:52:37;;;;;;;;;;;24.80;99.90;;;;;;4935117;29;19989;-70
2021/06/23 14:55:07;;;;;;;;;;;24.80;99.90;;;;;;4933215;29;19969;-68
2021/06/23 14:57:34;;;;;;;;;;;24.80;99.90;;;;;;4915952;29;19927;-68
2021/06/23 15:00:01;;;;;;;;;;;24.40;99.90;;;;;;4916710;29;20006;-70
2021/06/23 15:02:28;;;;;;;;;;;24.50;99.90;;;;;;4933540;29;19927;-70
2021/06/23 15:04:55;;;;;;;;;;;24.20;99.90;;;;;;4933946;29;19927;-70
2021/06/23 15:07:22;;;;;;;;;;;24.20;99.90;;;;;;4916671;29;19951;-69
2021/06/23 15:09:48;;;;;;;;;;;23.80;99.90;;;;;;4934209;29;20698;-70
2021/06/23 15:12:17;;;;;;;;;;;23.90;99.90;;;;;;4932535;29;20223;-70
2021/06/23 15:14:44;;;;;;;;;;;23.80;99.90;;;;;;4914563;29;20017;-70
2021/06/23 15:17:11;;;;;;;;;;;23.90;99.90;;;;;;4916787;29;19962;-70
2021/06/23 15:19:38;;;;;;;;;;;24.30;99.90;;;;;;4899544;29;19930;-70
2021/06/23 15:22:05;;;;;;;;;;;23.90;99.90;;;;;;4921152;29;20528;-69
2021/06/23 15:24:32;;;;;;;;;;;23.80;99.90;;;;;;4934007;29;19933;-68
2021/06/23 15:26:59;;;;;;;;;;;24.10;99.90;;;;;;4915446;29;19973;-68
2021/06/23 15:29:27;;;;;;;;;;;24.00;99.90;;;;;;4933072;29;20209;-69
2021/06/23 15:31:54;;;;;;;;;;;23.90;99.90;;;;;;4932948;29;20025;-68
2021/06/23 15:34:20;;;;;;;;;;;24.00;99.90;;;;;;4933018;29;20375;-68
2021/06/23 15:36:47;;;;;;;;;;;24.10;99.90;;;;;;4933626;29;19927;-69
2021/06/23 15:39:14;;;;;;;;;;;24.20;99.90;;;;;;4935785;29;19927;-69
2021/06/23 15:41:41;;;;;;;;;;;24.00;99.90;;;;;;4934386;29;19961;-69
2021/06/23 15:44:08;;;;;;;;;;;23.90;99.90;;;;;;4935381;29;19927;-69
2021/06/23 15:46:36;;;;;;;;;;;23.90;99.90;;;;;;4936059;29;20140;-69
2021/06/23 15:49:03;;;;;;;;;;;23.90;99.90;;;;;;4918677;29;19927;-69
2021/06/23 15:51:29;;;;;;;;;;;23.70;99.90;;;;;;4934981;29;20398;-69
2021/06/23 15:53:56;;;;;;;;;;;23.70;99.90;;;;;;4924848;29;19931;-69
2021/06/23 15:56:24;;;;;;;;;;;23.50;99.90;;;;;;4933474;29;19927;-69
2021/06/23 15:58:52;;;;;;;;;;;23.40;99.90;;;;;;4939602;29;20347;-69
2021/06/23 16:01:18;;;;;;;;;;;23.40;99.90;;;;;;4941878;29;19927;-69
2021/06/23 16:03:47;;;;;;;;;;;23.30;99.90;;;;;;4931867;29;20454;-69
2021/06/23 16:06:13;;;;;;;;;;;23.40;99.90;;;;;;4932730;29;19933;-70
2021/06/23 16:08:40;;;;;;;;;;;23.30;99.90;;;;;;4932517;29;19931;-70
2021/06/23 16:11:07;;;;;;;;;;;23.20;99.90;;;;;;4932406;29;19926;-69
2021/06/23 16:13:34;;;;;;;;;;;23.00;99.90;;;;;;4932428;29;19970;-69
2021/06/23 16:16:01;;;;;;;;;;;23.00;99.90;;;;;;4934309;29;19934;-69
2021/06/23 16:18:29;;;;;;;;;;;22.80;99.90;;;;;;4932935;29;19956;-70
2021/06/23 16:20:59;;;;;;;;;;;22.70;99.90;;;;;;4915089;29;20411;-69
2021/06/23 16:23:28;;;;;;;;;;;22.80;99.90;;;;;;4931611;29;19978;-69
2021/06/23 16:25:55;;;;;;;;;;;22.80;99.90;;;;;;4932545;29;19931;-69
2021/06/23 16:28:22;;;;;;;;;;;22.80;99.90;;;;;;4932306;29;19937;-69
2021/06/23 16:30:49;;;;;;;;;;;22.70;99.90;;;;;;4932010;29;20316;-70
2021/06/23 16:33:17;;;;;;;;;;;22.60;99.90;;;;;;4932486;29;20021;-69
2021/06/23 16:35:44;;;;;;;;;;;22.70;99.90;;;;;;4933721;29;20359;-69
2021/06/23 16:38:13;;;;;;;;;;;22.60;99.90;;;;;;4935347;29;19935;-69
2021/06/23 16:40:40;;;;;;;;;;;22.60;99.90;;;;;;4934590;29;19935;-69
2021/06/23 16:43:06;;;;;;;;;;;22.60;99.90;;;;;;4934058;29;19937;-70
2021/06/23 16:45:33;;;;;;;;;;;22.50;99.90;;;;;;4935518;29;19966;-69
2021/06/23 16:48:00;;;;;;;;;;;22.30;99.90;;;;;;4935440;29;19927;-69
2021/06/23 16:50:27;;;;;;;;;;;22.20;99.90;;;;;;4936035;29;19933;-69
2021/06/23 16:52:54;;;;;;;;;;;22.20;99.90;;;;;;4934376;29;19966;-70
2021/06/23 16:58:02;;;;;;;;;;;22.20;99.90;;;;;;4933226;29;19989;-69
2021/06/23 17:00:29;;;;;;;;;;;22.30;99.90;;;;;;4935131;29;19933;-69
2021/06/23 17:02:56;;;;;;;;;;;22.30;99.90;;;;;;4935328;29;20033;-69
2021/06/23 17:05:23;;;;;;;;;;;22.40;99.90;;;;;;4935377;29;19995;-69
2021/06/23 17:07:50;;;;;;;;;;;22.30;99.90;;;;;;4935823;29;19926;-69
2021/06/23 17:10:16;;;;;;;;;;;22.40;99.90;;;;;;4934947;29;20037;-69
2021/06/23 17:12:45;;;;;;;;;;;22.30;99.90;;;;;;4934077;29;21276;-69
2021/06/23 17:15:12;;;;;;;;;;;22.40;99.90;;;;;;4934599;29;19931;-70
2021/06/23 17:17:39;;;;;;;;;;;22.40;99.90;;;;;;4919509;29;20377;-69
2021/06/23 17:20:07;;;;;;;;;;;22.40;99.90;;;;;;4936201;29;19953;-69
2021/06/23 17:22:34;;;;;;;;;;;22.50;99.90;;;;;;4933920;29;19926;-69
2021/06/23 17:25:00;;;;;;;;;;;22.60;99.90;;;;;;4936228;29;20018;-69
2021/06/23 17:27:27;;;;;;;;;;;22.70;99.90;;;;;;4935409;29;19931;-70
2021/06/23 17:29:55;;;;;;;;;;;22.70;99.90;;;;;;4936595;29;19962;-73
2021/06/23 17:32:22;;;;;;;;;;;22.60;99.90;;;;;;4935147;29;19937;-73
2021/06/23 17:34:49;;;;;;;;;;;22.70;99.90;;;;;;4936010;29;20298;-74
2021/06/23 17:37:16;;;;;;;;;;;22.70;99.90;;;;;;4935008;29;19931;-74
2021/06/23 17:39:43;;;;;;;;;;;22.60;99.90;;;;;;4935351;29;19957;-72
2021/06/23 17:42:10;;;;;;;;;;;22.70;99.90;;;;;;4934149;29;19973;-73
2021/06/23 17:44:37;;;;;;;;;;;22.60;99.90;;;;;;4917901;29;19927;-73
2021/06/23 17:47:05;;;;;;;;;;;22.70;99.90;;;;;;4915962;29;19982;-73
2021/06/23 17:49:32;;;;;;;;;;;22.70;99.90;;;;;;4934528;29;20029;-73
2021/06/23 17:51:59;;;;;;;;;;;22.70;99.90;;;;;;4934437;29;20398;-72
2021/06/23 17:54:26;;;;;;;;;;;22.80;99.90;;;;;;4934427;29;20029;-73
2021/06/23 17:56:53;;;;;;;;;;;22.90;99.90;;;;;;4934559;29;19934;-72
2021/06/23 17:59:20;;;;;;;;;;;22.80;99.90;;;;;;4934700;29;20559;-72
2021/06/23 18:01:48;;;;;;;;;;;22.80;99.90;;;;;;4934469;29;19983;-74
2021/06/23 18:04:17;;;;;;;;;;;22.80;99.90;;;;;;4919609;29;19927;-73
2021/06/23 18:06:45;;;;;;;;;;;22.80;99.90;;;;;;4915976;29;19933;-73
2021/06/23 18:09:12;;;;;;;;;;;22.80;99.90;;;;;;4935348;29;20375;-72
2021/06/23 18:11:39;;;;;;;;;;;22.60;99.90;;;;;;4931251;29;19927;-72
2021/06/23 18:14:06;;;;;;;;;;;22.50;99.90;;;;;;4936689;29;19972;-73
2021/06/23 18:16:33;;;;;;;;;;;22.40;99.90;;;;;;4936317;29;19927;-72
2021/06/23 18:19:00;;;;;;;;;;;22.50;99.90;;;;;;4934384;29;19926;-73
2021/06/23 18:21:33;;;;;;;;;;;22.40;99.90;;;;;;4935446;29;20351;-74
2021/06/23 18:24:00;;;;;;;;;;;22.40;99.90;;;;;;4917677;29;20033;-73
2021/06/23 18:26:27;;;;;;;;;;;22.40;99.90;;;;;;4934502;29;20029;-73
2021/06/23 18:28:54;;;;;;;;;;;22.30;99.90;;;;;;4934898;29;20321;-74
2021/06/23 18:31:21;;;;;;;;;;;22.40;99.90;;;;;;4934373;29;19994;-68
2021/06/23 18:33:48;;;;;;;;;;;22.30;99.90;;;;;;4934427;29;19973;-70
2021/06/23 18:36:14;;;;;;;;;;;22.30;99.90;;;;;;4917929;29;19965;-70
2021/06/23 18:38:43;;;;;;;;;;;22.30;99.90;;;;;;4935412;29;20018;-70
2021/06/23 18:41:09;;;;;;;;;;;22.30;99.90;;;;;;4933657;29;19927;-70
2021/06/23 18:43:36;;;;;;;;;;;22.20;99.90;;;;;;4933358;29;20517;-69
2021/06/23 18:46:03;;;;;;;;;;;22.20;99.90;;;;;;4914378;29;19970;-71
2021/06/23 18:48:30;;;;;;;;;;;22.10;99.90;;;;;;4932658;29;20409;-70
2021/06/23 18:50:57;;;;;;;;;;;22.10;99.90;;;;;;4933649;29;19935;-71
2021/06/23 18:53:24;;;;;;;;;;;22.00;99.90;;;;;;4915882;29;20280;-67
2021/06/23 18:55:52;;;;;;;;;;;21.90;99.90;;;;;;4917140;29;19927;-69
2021/06/23 18:58:18;;;;;;;;;;;21.90;99.90;;;;;;4927362;29;19985;-70
2021/06/23 19:00:45;;;;;;;;;;;21.90;99.90;;;;;;4932972;29;19926;-69
2021/06/23 19:03:12;;;;;;;;;;;21.70;99.90;;;;;;4932973;29;19946;-73
2021/06/23 19:05:39;;;;;;;;;;;21.70;99.90;;;;;;4932929;29;19933;-69
2021/06/23 19:08:06;;;;;;;;;;;21.70;99.90;;;;;;4933877;29;20370;-70
2021/06/23 19:10:33;;;;;;;;;;;21.70;99.90;;;;;;4932980;29;20041;-70
2021/06/23 19:13:02;;;;;;;;;;;21.60;99.90;;;;;;4932402;29;19927;-70
2021/06/23 19:15:29;;;;;;;;;;;21.50;99.90;;;;;;4933407;29;20014;-69
2021/06/23 19:17:56;;;;;;;;;;;21.40;99.90;;;;;;4915887;29;19945;-70
2021/06/23 19:20:23;;;;;;;;;;;21.30;99.90;;;;;;4933528;29;19931;-69